sensor_id;sensor_type;location;lat;lon;timestamp;P1;durP1;ratioP1;P2;durP2;ratioP2
57113;SDS011;42994;51.606;9.988;2023-08-31T00:00:44;10.85;;;8.48;;
57113;SDS011;42994;51.606;9.988;2023-08-31T00:03:11;11.93;;;9.18;;
57113;SDS011;42994;51.606;9.988;2023-08-31T00:05:40;16.88;;;9.68;;
57113;SDS011;42994;51.606;9.988;2023-08-31T00:08:07;13.77;;;8.60;;
57113;SDS011;42994;51.606;9.988;2023-08-31T00:10:34;14.35;;;8.85;;
57113;SDS011;42994;51.606;9.988;2023-08-31T00:13:03;13.93;;;10.27;;
57113;SDS011;42994;51.606;9.988;2023-08-31T00:15:31;11.82;;;9.70;;
57113;SDS011;42994;51.606;9.988;2023-08-31T00:18:00;11.52;;;9.32;;
57113;SDS011;42994;51.606;9.988;2023-08-31T00:20:28;13.50;;;10.07;;
57113;SDS011;42994;51.606;9.988;2023-08-31T00:22:56;14.07;;;9.30;;
57113;SDS011;42994;51.606;9.988;2023-08-31T00:25:23;13.82;;;9.25;;
57113;SDS011;42994;51.606;9.988;2023-08-31T00:27:50;14.23;;;9.80;;
57113;SDS011;42994;51.606;9.988;2023-08-31T00:30:19;13.27;;;9.85;;
57113;SDS011;42994;51.606;9.988;2023-08-31T00:32:46;15.63;;;10.18;;
57113;SDS011;42994;51.606;9.988;2023-08-31T00:35:13;13.93;;;9.20;;
57113;SDS011;42994;51.606;9.988;2023-08-31T00:37:40;12.48;;;9.50;;
57113;SDS011;42994;51.606;9.988;2023-08-31T00:40:07;12.88;;;9.48;;
57113;SDS011;42994;51.606;9.988;2023-08-31T00:42:36;13.38;;;9.57;;
57113;SDS011;42994;51.606;9.988;2023-08-31T00:45:03;14.27;;;9.77;;
57113;SDS011;42994;51.606;9.988;2023-08-31T00:47:32;14.85;;;9.98;;
57113;SDS011;42994;51.606;9.988;2023-08-31T00:49:59;10.93;;;8.93;;
57113;SDS011;42994;51.606;9.988;2023-08-31T00:52:27;19.33;;;11.40;;
57113;SDS011;42994;51.606;9.988;2023-08-31T00:54:54;16.25;;;10.23;;
57113;SDS011;42994;51.606;9.988;2023-08-31T00:57:20;12.55;;;10.30;;
57113;SDS011;42994;51.606;9.988;2023-08-31T00:59:49;13.63;;;10.73;;
57113;SDS011;42994;51.606;9.988;2023-08-31T01:02:16;15.20;;;9.73;;
57113;SDS011;42994;51.606;9.988;2023-08-31T01:04:54;14.10;;;9.52;;
57113;SDS011;42994;51.606;9.988;2023-08-31T01:10:18;13.15;;;10.35;;
57113;SDS011;42994;51.606;9.988;2023-08-31T01:12:52;13.60;;;9.13;;
57113;SDS011;42994;51.606;9.988;2023-08-31T01:15:23;18.23;;;9.93;;
57113;SDS011;42994;51.606;9.988;2023-08-31T01:17:55;15.63;;;10.13;;
57113;SDS011;42994;51.606;9.988;2023-08-31T01:20:26;13.07;;;9.88;;
57113;SDS011;42994;51.606;9.988;2023-08-31T01:22:58;17.05;;;9.38;;
57113;SDS011;42994;51.606;9.988;2023-08-31T01:25:29;11.73;;;8.82;;
57113;SDS011;42994;51.606;9.988;2023-08-31T01:27:58;13.35;;;9.27;;
57113;SDS011;42994;51.606;9.988;2023-08-31T01:30:25;14.38;;;8.90;;
57113;SDS011;42994;51.606;9.988;2023-08-31T01:32:56;14.52;;;8.93;;
57113;SDS011;42994;51.606;9.988;2023-08-31T01:35:22;19.13;;;10.80;;
57113;SDS011;42994;51.606;9.988;2023-08-31T01:37:50;14.38;;;9.65;;
57113;SDS011;42994;51.606;9.988;2023-08-31T01:40:21;13.65;;;8.75;;
57113;SDS011;42994;51.606;9.988;2023-08-31T01:42:51;11.30;;;7.95;;
57113;SDS011;42994;51.606;9.988;2023-08-31T01:45:19;14.18;;;8.88;;
57113;SDS011;42994;51.606;9.988;2023-08-31T01:47:48;10.63;;;8.10;;
57113;SDS011;42994;51.606;9.988;2023-08-31T01:50:17;13.02;;;8.25;;
57113;SDS011;42994;51.606;9.988;2023-08-31T01:52:44;12.25;;;8.93;;
57113;SDS011;42994;51.606;9.988;2023-08-31T01:55:11;15.05;;;8.57;;
57113;SDS011;42994;51.606;9.988;2023-08-31T01:57:40;12.63;;;8.57;;
57113;SDS011;42994;51.606;9.988;2023-08-31T02:00:13;17.20;;;8.05;;
57113;SDS011;42994;51.606;9.988;2023-08-31T02:02:42;10.45;;;7.88;;
57113;SDS011;42994;51.606;9.988;2023-08-31T02:07:36;12.07;;;7.75;;
57113;SDS011;42994;51.606;9.988;2023-08-31T02:10:03;19.77;;;8.73;;
57113;SDS011;42994;51.606;9.988;2023-08-31T02:12:31;19.35;;;9.70;;
57113;SDS011;42994;51.606;9.988;2023-08-31T02:14:58;12.13;;;9.77;;
57113;SDS011;42994;51.606;9.988;2023-08-31T02:17:26;15.93;;;10.20;;
57113;SDS011;42994;51.606;9.988;2023-08-31T02:19:53;15.48;;;10.13;;
57113;SDS011;42994;51.606;9.988;2023-08-31T02:22:19;13.93;;;9.45;;
57113;SDS011;42994;51.606;9.988;2023-08-31T02:24:46;13.70;;;9.00;;
57113;SDS011;42994;51.606;9.988;2023-08-31T02:27:13;17.50;;;9.88;;
57113;SDS011;42994;51.606;9.988;2023-08-31T02:29:40;13.68;;;9.05;;
57113;SDS011;42994;51.606;9.988;2023-08-31T02:32:07;15.70;;;9.50;;
57113;SDS011;42994;51.606;9.988;2023-08-31T02:34:35;10.05;;;7.80;;
57113;SDS011;42994;51.606;9.988;2023-08-31T02:37:04;17.38;;;8.13;;
57113;SDS011;42994;51.606;9.988;2023-08-31T02:39:31;16.42;;;9.05;;
57113;SDS011;42994;51.606;9.988;2023-08-31T02:41:58;9.68;;;8.02;;
57113;SDS011;42994;51.606;9.988;2023-08-31T02:44:25;10.80;;;8.18;;
57113;SDS011;42994;51.606;9.988;2023-08-31T02:46:52;13.98;;;8.82;;
57113;SDS011;42994;51.606;9.988;2023-08-31T02:49:18;14.82;;;8.98;;
57113;SDS011;42994;51.606;9.988;2023-08-31T02:51:46;13.05;;;8.80;;
57113;SDS011;42994;51.606;9.988;2023-08-31T02:54:14;9.85;;;7.63;;
57113;SDS011;42994;51.606;9.988;2023-08-31T02:56:41;9.48;;;8.15;;
57113;SDS011;42994;51.606;9.988;2023-08-31T02:59:08;12.20;;;8.75;;
57113;SDS011;42994;51.606;9.988;2023-08-31T03:01:35;16.65;;;9.00;;
57113;SDS011;42994;51.606;9.988;2023-08-31T03:04:01;17.45;;;8.70;;
57113;SDS011;42994;51.606;9.988;2023-08-31T03:06:28;14.02;;;8.55;;
57113;SDS011;42994;51.606;9.988;2023-08-31T03:08:56;13.93;;;8.60;;
57113;SDS011;42994;51.606;9.988;2023-08-31T03:11:23;17.63;;;8.85;;
57113;SDS011;42994;51.606;9.988;2023-08-31T03:13:50;11.98;;;7.63;;
57113;SDS011;42994;51.606;9.988;2023-08-31T03:16:16;12.68;;;8.60;;
57113;SDS011;42994;51.606;9.988;2023-08-31T03:18:43;11.60;;;8.15;;
57113;SDS011;42994;51.606;9.988;2023-08-31T03:21:09;16.70;;;8.52;;
57113;SDS011;42994;51.606;9.988;2023-08-31T03:23:38;15.20;;;10.05;;
57113;SDS011;42994;51.606;9.988;2023-08-31T03:26:08;16.02;;;9.50;;
57113;SDS011;42994;51.606;9.988;2023-08-31T03:28:35;16.67;;;9.35;;
57113;SDS011;42994;51.606;9.988;2023-08-31T03:31:03;18.00;;;10.05;;
57113;SDS011;42994;51.606;9.988;2023-08-31T03:33:30;13.40;;;9.48;;
57113;SDS011;42994;51.606;9.988;2023-08-31T03:35:59;14.93;;;10.07;;
57113;SDS011;42994;51.606;9.988;2023-08-31T03:38:28;20.15;;;10.07;;
57113;SDS011;42994;51.606;9.988;2023-08-31T03:40:54;17.20;;;9.98;;
57113;SDS011;42994;51.606;9.988;2023-08-31T03:43:24;20.27;;;10.15;;
57113;SDS011;42994;51.606;9.988;2023-08-31T03:45:53;16.48;;;10.30;;
57113;SDS011;42994;51.606;9.988;2023-08-31T03:48:20;18.20;;;9.48;;
57113;SDS011;42994;51.606;9.988;2023-08-31T03:50:48;12.57;;;9.20;;
57113;SDS011;42994;51.606;9.988;2023-08-31T03:53:15;12.85;;;9.70;;
57113;SDS011;42994;51.606;9.988;2023-08-31T03:55:42;14.32;;;9.90;;
57113;SDS011;42994;51.606;9.988;2023-08-31T03:58:08;14.15;;;9.20;;
57113;SDS011;42994;51.606;9.988;2023-08-31T04:00:37;13.23;;;9.80;;
57113;SDS011;42994;51.606;9.988;2023-08-31T04:03:04;15.15;;;10.07;;
57113;SDS011;42994;51.606;9.988;2023-08-31T04:05:31;15.38;;;10.52;;
57113;SDS011;42994;51.606;9.988;2023-08-31T04:07:59;17.92;;;10.18;;
57113;SDS011;42994;51.606;9.988;2023-08-31T04:10:25;22.10;;;10.82;;
57113;SDS011;42994;51.606;9.988;2023-08-31T04:12:52;17.25;;;10.43;;
57113;SDS011;42994;51.606;9.988;2023-08-31T04:15:19;13.82;;;9.77;;
57113;SDS011;42994;51.606;9.988;2023-08-31T04:17:47;13.95;;;10.02;;
57113;SDS011;42994;51.606;9.988;2023-08-31T04:20:14;16.48;;;10.63;;
57113;SDS011;42994;51.606;9.988;2023-08-31T04:22:42;20.35;;;10.80;;
57113;SDS011;42994;51.606;9.988;2023-08-31T04:25:08;15.50;;;10.93;;
57113;SDS011;42994;51.606;9.988;2023-08-31T04:27:35;20.42;;;10.93;;
57113;SDS011;42994;51.606;9.988;2023-08-31T04:30:04;13.32;;;10.02;;
57113;SDS011;42994;51.606;9.988;2023-08-31T04:32:33;16.60;;;10.45;;
57113;SDS011;42994;51.606;9.988;2023-08-31T04:35:02;16.23;;;11.07;;
57113;SDS011;42994;51.606;9.988;2023-08-31T04:37:30;17.58;;;10.98;;
57113;SDS011;42994;51.606;9.988;2023-08-31T04:39:57;15.98;;;11.50;;
57113;SDS011;42994;51.606;9.988;2023-08-31T04:42:24;14.32;;;10.88;;
57113;SDS011;42994;51.606;9.988;2023-08-31T04:44:50;26.98;;;12.40;;
57113;SDS011;42994;51.606;9.988;2023-08-31T04:47:17;23.50;;;12.40;;
57113;SDS011;42994;51.606;9.988;2023-08-31T04:49:43;22.13;;;14.27;;
57113;SDS011;42994;51.606;9.988;2023-08-31T04:52:11;18.42;;;11.93;;
57113;SDS011;42994;51.606;9.988;2023-08-31T04:54:38;16.73;;;11.90;;
57113;SDS011;42994;51.606;9.988;2023-08-31T04:57:05;20.05;;;12.10;;
57113;SDS011;42994;51.606;9.988;2023-08-31T04:59:32;23.38;;;13.85;;
57113;SDS011;42994;51.606;9.988;2023-08-31T05:01:59;21.50;;;14.27;;
57113;SDS011;42994;51.606;9.988;2023-08-31T05:04:25;22.10;;;14.88;;
57113;SDS011;42994;51.606;9.988;2023-08-31T05:06:53;18.70;;;12.95;;
57113;SDS011;42994;51.606;9.988;2023-08-31T05:09:21;18.33;;;10.82;;
57113;SDS011;42994;51.606;9.988;2023-08-31T05:11:50;16.33;;;9.93;;
57113;SDS011;42994;51.606;9.988;2023-08-31T05:14:16;15.20;;;9.93;;
57113;SDS011;42994;51.606;9.988;2023-08-31T05:16:44;11.25;;;8.90;;
57113;SDS011;42994;51.606;9.988;2023-08-31T05:19:11;13.32;;;8.63;;
57113;SDS011;42994;51.606;9.988;2023-08-31T05:21:37;9.95;;;7.68;;
57113;SDS011;42994;51.606;9.988;2023-08-31T05:24:05;12.60;;;8.98;;
57113;SDS011;42994;51.606;9.988;2023-08-31T05:26:33;10.75;;;8.57;;
57113;SDS011;42994;51.606;9.988;2023-08-31T05:28:59;11.55;;;9.30;;
57113;SDS011;42994;51.606;9.988;2023-08-31T05:31:26;11.20;;;9.50;;
57113;SDS011;42994;51.606;9.988;2023-08-31T05:33:52;13.98;;;9.60;;
57113;SDS011;42994;51.606;9.988;2023-08-31T05:36:19;15.93;;;8.35;;
57113;SDS011;42994;51.606;9.988;2023-08-31T05:38:46;15.65;;;9.85;;
57113;SDS011;42994;51.606;9.988;2023-08-31T05:41:12;14.40;;;10.07;;
57113;SDS011;42994;51.606;9.988;2023-08-31T05:43:40;13.43;;;8.75;;
57113;SDS011;42994;51.606;9.988;2023-08-31T05:46:07;13.30;;;9.70;;
57113;SDS011;42994;51.606;9.988;2023-08-31T05:48:34;15.32;;;8.82;;
57113;SDS011;42994;51.606;9.988;2023-08-31T05:51:01;19.23;;;11.45;;
57113;SDS011;42994;51.606;9.988;2023-08-31T05:53:28;12.07;;;10.07;;
57113;SDS011;42994;51.606;9.988;2023-08-31T05:55:56;16.55;;;11.52;;
57113;SDS011;42994;51.606;9.988;2023-08-31T05:58:29;21.67;;;12.88;;
57113;SDS011;42994;51.606;9.988;2023-08-31T06:00:57;20.33;;;12.05;;
57113;SDS011;42994;51.606;9.988;2023-08-31T06:03:24;23.27;;;12.63;;
57113;SDS011;42994;51.606;9.988;2023-08-31T06:05:51;19.35;;;11.20;;
57113;SDS011;42994;51.606;9.988;2023-08-31T06:08:18;20.55;;;11.30;;
57113;SDS011;42994;51.606;9.988;2023-08-31T06:10:45;22.73;;;11.68;;
57113;SDS011;42994;51.606;9.988;2023-08-31T06:13:11;14.95;;;11.70;;
57113;SDS011;42994;51.606;9.988;2023-08-31T06:15:38;19.30;;;12.70;;
57113;SDS011;42994;51.606;9.988;2023-08-31T06:18:06;19.67;;;11.95;;
57113;SDS011;42994;51.606;9.988;2023-08-31T06:20:33;15.65;;;11.85;;
57113;SDS011;42994;51.606;9.988;2023-08-31T06:23:00;15.77;;;11.27;;
57113;SDS011;42994;51.606;9.988;2023-08-31T06:25:26;19.88;;;12.52;;
57113;SDS011;42994;51.606;9.988;2023-08-31T06:27:53;16.02;;;11.40;;
57113;SDS011;42994;51.606;9.988;2023-08-31T06:30:20;22.95;;;14.05;;
57113;SDS011;42994;51.606;9.988;2023-08-31T06:32:47;22.33;;;13.27;;
57113;SDS011;42994;51.606;9.988;2023-08-31T06:35:16;18.58;;;11.65;;
57113;SDS011;42994;51.606;9.988;2023-08-31T06:37:44;19.27;;;14.02;;
57113;SDS011;42994;51.606;9.988;2023-08-31T06:40:11;21.15;;;13.18;;
57113;SDS011;42994;51.606;9.988;2023-08-31T06:42:38;24.67;;;13.93;;
57113;SDS011;42994;51.606;9.988;2023-08-31T06:45:06;22.85;;;14.55;;
57113;SDS011;42994;51.606;9.988;2023-08-31T06:47:33;20.55;;;14.90;;
57113;SDS011;42994;51.606;9.988;2023-08-31T06:50:00;16.13;;;13.32;;
57113;SDS011;42994;51.606;9.988;2023-08-31T06:52:29;18.85;;;13.40;;
57113;SDS011;42994;51.606;9.988;2023-08-31T06:54:56;19.50;;;13.35;;
57113;SDS011;42994;51.606;9.988;2023-08-31T06:57:23;20.50;;;13.55;;
57113;SDS011;42994;51.606;9.988;2023-08-31T06:59:50;19.63;;;12.20;;
57113;SDS011;42994;51.606;9.988;2023-08-31T07:02:17;16.17;;;11.73;;
57113;SDS011;42994;51.606;9.988;2023-08-31T07:04:47;15.27;;;11.45;;
57113;SDS011;42994;51.606;9.988;2023-08-31T07:07:14;17.73;;;11.68;;
57113;SDS011;42994;51.606;9.988;2023-08-31T07:09:43;17.08;;;11.43;;
57113;SDS011;42994;51.606;9.988;2023-08-31T07:12:10;15.65;;;11.10;;
57113;SDS011;42994;51.606;9.988;2023-08-31T07:14:37;16.08;;;11.43;;
57113;SDS011;42994;51.606;9.988;2023-08-31T07:17:04;15.95;;;11.30;;
57113;SDS011;42994;51.606;9.988;2023-08-31T07:19:31;16.08;;;10.43;;
57113;SDS011;42994;51.606;9.988;2023-08-31T07:22:01;17.77;;;11.65;;
57113;SDS011;42994;51.606;9.988;2023-08-31T07:24:29;13.73;;;10.10;;
57113;SDS011;42994;51.606;9.988;2023-08-31T07:26:57;14.65;;;10.65;;
57113;SDS011;42994;51.606;9.988;2023-08-31T07:29:24;18.15;;;10.73;;
57113;SDS011;42994;51.606;9.988;2023-08-31T07:31:51;16.48;;;9.88;;
57113;SDS011;42994;51.606;9.988;2023-08-31T07:34:18;23.92;;;10.73;;
57113;SDS011;42994;51.606;9.988;2023-08-31T07:36:45;17.65;;;9.15;;
57113;SDS011;42994;51.606;9.988;2023-08-31T07:39:12;10.25;;;8.80;;
57113;SDS011;42994;51.606;9.988;2023-08-31T07:41:39;9.48;;;8.43;;
57113;SDS011;42994;51.606;9.988;2023-08-31T07:44:07;15.68;;;7.95;;
57113;SDS011;42994;51.606;9.988;2023-08-31T07:46:33;11.48;;;7.88;;
57113;SDS011;42994;51.606;9.988;2023-08-31T07:49:00;10.60;;;7.22;;
57113;SDS011;42994;51.606;9.988;2023-08-31T07:51:27;7.13;;;4.95;;
57113;SDS011;42994;51.606;9.988;2023-08-31T07:53:53;9.63;;;6.72;;
57113;SDS011;42994;51.606;9.988;2023-08-31T07:56:20;10.25;;;7.45;;
57113;SDS011;42994;51.606;9.988;2023-08-31T07:58:48;9.93;;;7.20;;
57113;SDS011;42994;51.606;9.988;2023-08-31T08:01:16;11.52;;;6.18;;
57113;SDS011;42994;51.606;9.988;2023-08-31T08:03:43;11.98;;;6.60;;
57113;SDS011;42994;51.606;9.988;2023-08-31T08:06:09;7.18;;;5.18;;
57113;SDS011;42994;51.606;9.988;2023-08-31T08:08:36;6.85;;;5.53;;
57113;SDS011;42994;51.606;9.988;2023-08-31T08:11:04;5.65;;;4.93;;
57113;SDS011;42994;51.606;9.988;2023-08-31T08:13:31;5.35;;;4.55;;
57113;SDS011;42994;51.606;9.988;2023-08-31T08:15:57;6.97;;;4.53;;
57113;SDS011;42994;51.606;9.988;2023-08-31T08:18:25;9.90;;;4.97;;
57113;SDS011;42994;51.606;9.988;2023-08-31T08:20:52;8.23;;;4.80;;
57113;SDS011;42994;51.606;9.988;2023-08-31T08:23:19;6.38;;;3.97;;
57113;SDS011;42994;51.606;9.988;2023-08-31T08:25:47;7.30;;;3.10;;
57113;SDS011;42994;51.606;9.988;2023-08-31T08:28:13;3.90;;;2.97;;
57113;SDS011;42994;51.606;9.988;2023-08-31T08:30:40;8.65;;;3.05;;
57113;SDS011;42994;51.606;9.988;2023-08-31T08:33:07;5.60;;;2.60;;
57113;SDS011;42994;51.606;9.988;2023-08-31T08:35:36;2.83;;;2.40;;
57113;SDS011;42994;51.606;9.988;2023-08-31T08:38:03;4.25;;;3.38;;
57113;SDS011;42994;51.606;9.988;2023-08-31T08:40:30;2.70;;;2.25;;
57113;SDS011;42994;51.606;9.988;2023-08-31T08:42:57;2.97;;;2.70;;
57113;SDS011;42994;51.606;9.988;2023-08-31T08:45:26;3.42;;;2.45;;
57113;SDS011;42994;51.606;9.988;2023-08-31T08:48:02;4.53;;;2.30;;
57113;SDS011;42994;51.606;9.988;2023-08-31T08:50:31;2.42;;;2.10;;
57113;SDS011;42994;51.606;9.988;2023-08-31T08:53:01;4.22;;;2.70;;
57113;SDS011;42994;51.606;9.988;2023-08-31T08:55:28;2.15;;;1.98;;
57113;SDS011;42994;51.606;9.988;2023-08-31T08:57:55;4.30;;;2.08;;
57113;SDS011;42994;51.606;9.988;2023-08-31T09:00:22;3.97;;;2.53;;
57113;SDS011;42994;51.606;9.988;2023-08-31T09:02:48;2.20;;;2.00;;
57113;SDS011;42994;51.606;9.988;2023-08-31T09:05:15;2.65;;;1.98;;
57113;SDS011;42994;51.606;9.988;2023-08-31T09:10:38;4.93;;;1.90;;
57113;SDS011;42994;51.606;9.988;2023-08-31T09:13:06;3.50;;;2.33;;
57113;SDS011;42994;51.606;9.988;2023-08-31T09:15:41;6.03;;;2.15;;
57113;SDS011;42994;51.606;9.988;2023-08-31T09:18:13;3.13;;;2.00;;
57113;SDS011;42994;51.606;9.988;2023-08-31T09:20:44;2.08;;;1.88;;
57113;SDS011;42994;51.606;9.988;2023-08-31T09:23:13;2.25;;;1.65;;
57113;SDS011;42994;51.606;9.988;2023-08-31T09:25:43;2.45;;;1.42;;
57113;SDS011;42994;51.606;9.988;2023-08-31T09:28:11;2.88;;;1.80;;
57113;SDS011;42994;51.606;9.988;2023-08-31T09:30:38;3.42;;;1.35;;
57113;SDS011;42994;51.606;9.988;2023-08-31T09:33:06;2.08;;;1.45;;
57113;SDS011;42994;51.606;9.988;2023-08-31T09:35:34;1.30;;;1.20;;
57113;SDS011;42994;51.606;9.988;2023-08-31T09:38:07;3.00;;;1.20;;
57113;SDS011;42994;51.606;9.988;2023-08-31T09:40:37;1.50;;;1.40;;
57113;SDS011;42994;51.606;9.988;2023-08-31T09:43:04;2.50;;;1.60;;
57113;SDS011;42994;51.606;9.988;2023-08-31T09:45:32;8.13;;;2.33;;
57113;SDS011;42994;51.606;9.988;2023-08-31T09:48:01;2.70;;;1.27;;
57113;SDS011;42994;51.606;9.988;2023-08-31T09:50:29;2.42;;;1.40;;
57113;SDS011;42994;51.606;9.988;2023-08-31T09:52:56;2.83;;;1.30;;
57113;SDS011;42994;51.606;9.988;2023-08-31T09:55:29;2.13;;;1.30;;
57113;SDS011;42994;51.606;9.988;2023-08-31T09:57:58;3.65;;;1.10;;
57113;SDS011;42994;51.606;9.988;2023-08-31T10:00:26;2.83;;;1.10;;
57113;SDS011;42994;51.606;9.988;2023-08-31T10:02:56;3.03;;;1.30;;
57113;SDS011;42994;51.606;9.988;2023-08-31T10:05:24;1.48;;;1.30;;
57113;SDS011;42994;51.606;9.988;2023-08-31T10:07:51;1.40;;;1.25;;
57113;SDS011;42994;51.606;9.988;2023-08-31T10:10:18;1.83;;;1.45;;
57113;SDS011;42994;51.606;9.988;2023-08-31T10:12:45;2.40;;;1.25;;
57113;SDS011;42994;51.606;9.988;2023-08-31T10:15:16;3.45;;;1.73;;
57113;SDS011;42994;51.606;9.988;2023-08-31T10:17:43;2.55;;;1.88;;
57113;SDS011;42994;51.606;9.988;2023-08-31T10:20:10;5.13;;;2.03;;
57113;SDS011;42994;51.606;9.988;2023-08-31T10:22:38;6.40;;;2.28;;
57113;SDS011;42994;51.606;9.988;2023-08-31T10:25:05;4.30;;;1.70;;
57113;SDS011;42994;51.606;9.988;2023-08-31T10:27:36;3.13;;;1.55;;
57113;SDS011;42994;51.606;9.988;2023-08-31T10:30:12;4.28;;;1.98;;
57113;SDS011;42994;51.606;9.988;2023-08-31T10:32:42;4.00;;;2.40;;
57113;SDS011;42994;51.606;9.988;2023-08-31T10:35:09;3.05;;;1.88;;
57113;SDS011;42994;51.606;9.988;2023-08-31T10:37:35;3.42;;;2.03;;
57113;SDS011;42994;51.606;9.988;2023-08-31T10:40:08;3.00;;;1.88;;
57113;SDS011;42994;51.606;9.988;2023-08-31T10:42:43;3.05;;;1.90;;
57113;SDS011;42994;51.606;9.988;2023-08-31T10:45:12;2.95;;;1.92;;
57113;SDS011;42994;51.606;9.988;2023-08-31T10:47:40;2.53;;;1.95;;
57113;SDS011;42994;51.606;9.988;2023-08-31T10:50:20;2.10;;;1.85;;
57113;SDS011;42994;51.606;9.988;2023-08-31T10:52:48;2.05;;;1.65;;
57113;SDS011;42994;51.606;9.988;2023-08-31T10:55:15;3.40;;;1.20;;
57113;SDS011;42994;51.606;9.988;2023-08-31T10:57:42;2.70;;;1.10;;
57113;SDS011;42994;51.606;9.988;2023-08-31T11:00:08;4.30;;;1.30;;
57113;SDS011;42994;51.606;9.988;2023-08-31T11:02:37;3.58;;;1.55;;
57113;SDS011;42994;51.606;9.988;2023-08-31T11:05:09;1.80;;;1.30;;
57113;SDS011;42994;51.606;9.988;2023-08-31T11:07:36;3.70;;;2.00;;
57113;SDS011;42994;51.606;9.988;2023-08-31T11:10:12;3.60;;;1.95;;
57113;SDS011;42994;51.606;9.988;2023-08-31T11:12:42;1.85;;;1.73;;
57113;SDS011;42994;51.606;9.988;2023-08-31T11:15:11;1.77;;;1.67;;
57113;SDS011;42994;51.606;9.988;2023-08-31T11:17:39;1.90;;;1.52;;
57113;SDS011;42994;51.606;9.988;2023-08-31T11:20:07;3.58;;;1.75;;
57113;SDS011;42994;51.606;9.988;2023-08-31T11:22:40;2.65;;;1.85;;
57113;SDS011;42994;51.606;9.988;2023-08-31T11:25:08;2.28;;;1.60;;
57113;SDS011;42994;51.606;9.988;2023-08-31T11:27:35;5.63;;;1.77;;
57113;SDS011;42994;51.606;9.988;2023-08-31T11:30:02;3.00;;;1.73;;
57113;SDS011;42994;51.606;9.988;2023-08-31T11:32:29;4.13;;;1.65;;
57113;SDS011;42994;51.606;9.988;2023-08-31T11:34:56;1.55;;;1.45;;
57113;SDS011;42994;51.606;9.988;2023-08-31T11:37:24;1.40;;;1.08;;
57113;SDS011;42994;51.606;9.988;2023-08-31T11:39:52;1.10;;;1.00;;
57113;SDS011;42994;51.606;9.988;2023-08-31T11:42:19;0.98;;;0.93;;
57113;SDS011;42994;51.606;9.988;2023-08-31T11:44:47;1.27;;;1.17;;
57113;SDS011;42994;51.606;9.988;2023-08-31T11:47:15;2.75;;;1.33;;
57113;SDS011;42994;51.606;9.988;2023-08-31T11:49:42;1.73;;;1.15;;
57113;SDS011;42994;51.606;9.988;2023-08-31T11:52:10;1.10;;;1.00;;
57113;SDS011;42994;51.606;9.988;2023-08-31T11:54:39;1.02;;;0.93;;
57113;SDS011;42994;51.606;9.988;2023-08-31T11:57:06;4.20;;;1.25;;
57113;SDS011;42994;51.606;9.988;2023-08-31T11:59:34;1.33;;;1.00;;
57113;SDS011;42994;51.606;9.988;2023-08-31T12:02:02;1.55;;;1.25;;
57113;SDS011;42994;51.606;9.988;2023-08-31T12:04:31;1.73;;;1.08;;
57113;SDS011;42994;51.606;9.988;2023-08-31T12:07:01;2.95;;;1.33;;
57113;SDS011;42994;51.606;9.988;2023-08-31T12:09:31;1.90;;;1.38;;
57113;SDS011;42994;51.606;9.988;2023-08-31T12:12:00;3.92;;;1.60;;
57113;SDS011;42994;51.606;9.988;2023-08-31T12:14:29;2.00;;;1.55;;
57113;SDS011;42994;51.606;9.988;2023-08-31T12:17:00;1.45;;;1.35;;
57113;SDS011;42994;51.606;9.988;2023-08-31T12:19:28;5.70;;;1.13;;
57113;SDS011;42994;51.606;9.988;2023-08-31T12:21:55;2.35;;;1.73;;
57113;SDS011;42994;51.606;9.988;2023-08-31T12:24:23;2.00;;;1.55;;
57113;SDS011;42994;51.606;9.988;2023-08-31T12:26:50;6.13;;;2.40;;
57113;SDS011;42994;51.606;9.988;2023-08-31T12:29:20;3.38;;;1.48;;
57113;SDS011;42994;51.606;9.988;2023-08-31T12:31:47;1.92;;;1.80;;
57113;SDS011;42994;51.606;9.988;2023-08-31T12:34:14;6.35;;;1.75;;
57113;SDS011;42994;51.606;9.988;2023-08-31T12:36:41;1.55;;;1.45;;
57113;SDS011;42994;51.606;9.988;2023-08-31T12:39:08;6.57;;;2.00;;
57113;SDS011;42994;51.606;9.988;2023-08-31T12:41:35;6.97;;;1.60;;
57113;SDS011;42994;51.606;9.988;2023-08-31T12:44:02;4.65;;;1.80;;
57113;SDS011;42994;51.606;9.988;2023-08-31T12:46:31;3.38;;;1.70;;
57113;SDS011;42994;51.606;9.988;2023-08-31T12:48:59;1.77;;;1.67;;
57113;SDS011;42994;51.606;9.988;2023-08-31T12:51:26;3.45;;;1.50;;
57113;SDS011;42994;51.606;9.988;2023-08-31T12:53:52;2.88;;;1.88;;
57113;SDS011;42994;51.606;9.988;2023-08-31T12:56:19;2.45;;;1.77;;
57113;SDS011;42994;51.606;9.988;2023-08-31T12:58:48;2.33;;;1.75;;
57113;SDS011;42994;51.606;9.988;2023-08-31T13:01:15;3.10;;;1.67;;
57113;SDS011;42994;51.606;9.988;2023-08-31T13:03:43;3.53;;;1.52;;
57113;SDS011;42994;51.606;9.988;2023-08-31T13:06:10;4.85;;;2.38;;
57113;SDS011;42994;51.606;9.988;2023-08-31T13:08:36;2.28;;;1.70;;
57113;SDS011;42994;51.606;9.988;2023-08-31T13:11:03;3.65;;;1.75;;
57113;SDS011;42994;51.606;9.988;2023-08-31T13:13:30;2.22;;;1.50;;
57113;SDS011;42994;51.606;9.988;2023-08-31T13:15:57;2.17;;;1.58;;
57113;SDS011;42994;51.606;9.988;2023-08-31T13:18:24;4.68;;;2.03;;
57113;SDS011;42994;51.606;9.988;2023-08-31T13:20:52;3.22;;;2.08;;
57113;SDS011;42994;51.606;9.988;2023-08-31T13:23:19;4.80;;;2.03;;
57113;SDS011;42994;51.606;9.988;2023-08-31T13:25:46;2.47;;;1.83;;
57113;SDS011;42994;51.606;9.988;2023-08-31T13:28:12;2.13;;;1.83;;
57113;SDS011;42994;51.606;9.988;2023-08-31T13:30:40;5.13;;;1.88;;
57113;SDS011;42994;51.606;9.988;2023-08-31T13:33:07;3.05;;;1.83;;
57113;SDS011;42994;51.606;9.988;2023-08-31T13:35:35;2.78;;;1.77;;
57113;SDS011;42994;51.606;9.988;2023-08-31T13:38:03;6.65;;;2.08;;
57113;SDS011;42994;51.606;9.988;2023-08-31T13:40:30;5.00;;;1.80;;
57113;SDS011;42994;51.606;9.988;2023-08-31T13:42:57;2.67;;;1.70;;
57113;SDS011;42994;51.606;9.988;2023-08-31T13:45:28;2.67;;;1.73;;
57113;SDS011;42994;51.606;9.988;2023-08-31T13:47:55;2.30;;;1.45;;
57113;SDS011;42994;51.606;9.988;2023-08-31T13:50:22;4.20;;;1.77;;
57113;SDS011;42994;51.606;9.988;2023-08-31T13:52:50;1.60;;;1.45;;
57113;SDS011;42994;51.606;9.988;2023-08-31T13:55:18;3.67;;;1.45;;
57113;SDS011;42994;51.606;9.988;2023-08-31T13:57:45;5.65;;;1.55;;
57113;SDS011;42994;51.606;9.988;2023-08-31T14:00:12;1.85;;;1.23;;
57113;SDS011;42994;51.606;9.988;2023-08-31T14:02:39;1.50;;;0.90;;
57113;SDS011;42994;51.606;9.988;2023-08-31T14:05:06;5.35;;;1.48;;
57113;SDS011;42994;51.606;9.988;2023-08-31T14:07:34;2.85;;;1.10;;
57113;SDS011;42994;51.606;9.988;2023-08-31T14:10:01;1.77;;;0.90;;
57113;SDS011;42994;51.606;9.988;2023-08-31T14:12:31;3.83;;;1.35;;
57113;SDS011;42994;51.606;9.988;2023-08-31T14:14:58;3.40;;;1.30;;
57113;SDS011;42994;51.606;9.988;2023-08-31T14:17:26;2.08;;;1.08;;
57113;SDS011;42994;51.606;9.988;2023-08-31T14:19:52;6.78;;;1.55;;
57113;SDS011;42994;51.606;9.988;2023-08-31T14:22:19;1.83;;;1.20;;
57113;SDS011;42994;51.606;9.988;2023-08-31T14:24:45;2.97;;;1.08;;
57113;SDS011;42994;51.606;9.988;2023-08-31T14:27:12;1.98;;;1.15;;
57113;SDS011;42994;51.606;9.988;2023-08-31T14:29:40;2.05;;;1.20;;
57113;SDS011;42994;51.606;9.988;2023-08-31T14:32:07;4.57;;;1.10;;
57113;SDS011;42994;51.606;9.988;2023-08-31T14:34:34;4.20;;;1.02;;
57113;SDS011;42994;51.606;9.988;2023-08-31T14:37:01;5.75;;;1.33;;
57113;SDS011;42994;51.606;9.988;2023-08-31T14:39:27;2.08;;;1.20;;
57113;SDS011;42994;51.606;9.988;2023-08-31T14:41:55;4.50;;;1.13;;
57113;SDS011;42994;51.606;9.988;2023-08-31T14:44:22;1.13;;;0.93;;
57113;SDS011;42994;51.606;9.988;2023-08-31T14:46:51;1.77;;;1.00;;
57113;SDS011;42994;51.606;9.988;2023-08-31T14:49:17;2.10;;;1.30;;